sensor_id;sensor_type;location;lat;lon;timestamp;P1;durP1;ratioP1;P2;durP2;ratioP2
3815;SDS011;1923;48.154;11.536;2022-07-29T00:01:17;1.20;;;0.73;;
3815;SDS011;1923;48.154;11.536;2022-07-29T00:03:45;1.37;;;1.00;;
3815;SDS011;1923;48.154;11.536;2022-07-29T00:06:13;1.70;;;1.20;;
3815;SDS011;1923;48.154;11.536;2022-07-29T00:08:43;1.20;;;0.90;;
3815;SDS011;1923;48.154;11.536;2022-07-29T00:11:11;1.60;;;1.30;;
3815;SDS011;1923;48.154;11.536;2022-07-29T00:13:39;2.17;;;0.90;;
3815;SDS011;1923;48.154;11.536;2022-07-29T00:16:12;1.83;;;1.00;;
3815;SDS011;1923;48.154;11.536;2022-07-29T00:18:41;2.77;;;1.80;;
3815;SDS011;1923;48.154;11.536;2022-07-29T00:21:09;2.00;;;1.33;;
3815;SDS011;1923;48.154;11.536;2022-07-29T00:23:37;1.87;;;1.60;;
3815;SDS011;1923;48.154;11.536;2022-07-29T00:26:14;1.77;;;1.20;;
3815;SDS011;1923;48.154;11.536;2022-07-29T00:28:42;1.70;;;1.13;;
3815;SDS011;1923;48.154;11.536;2022-07-29T00:31:10;1.70;;;1.23;;
3815;SDS011;1923;48.154;11.536;2022-07-29T00:33:38;2.30;;;1.57;;
3815;SDS011;1923;48.154;11.536;2022-07-29T00:36:07;2.27;;;1.30;;
3815;SDS011;1923;48.154;11.536;2022-07-29T00:38:37;1.47;;;1.20;;
3815;SDS011;1923;48.154;11.536;2022-07-29T00:41:07;2.53;;;1.30;;
3815;SDS011;1923;48.154;11.536;2022-07-29T00:43:37;2.10;;;1.30;;
3815;SDS011;1923;48.154;11.536;2022-07-29T00:46:05;3.27;;;1.30;;
3815;SDS011;1923;48.154;11.536;2022-07-29T00:48:33;2.60;;;1.27;;
3815;SDS011;1923;48.154;11.536;2022-07-29T00:51:02;1.93;;;1.40;;
3815;SDS011;1923;48.154;11.536;2022-07-29T00:53:31;2.60;;;1.27;;
3815;SDS011;1923;48.154;11.536;2022-07-29T00:55:59;2.57;;;1.20;;
3815;SDS011;1923;48.154;11.536;2022-07-29T00:58:27;2.27;;;1.30;;
3815;SDS011;1923;48.154;11.536;2022-07-29T01:00:58;1.57;;;1.00;;
3815;SDS011;1923;48.154;11.536;2022-07-29T01:03:26;2.93;;;1.37;;
3815;SDS011;1923;48.154;11.536;2022-07-29T01:05:54;1.97;;;1.50;;
3815;SDS011;1923;48.154;11.536;2022-07-29T01:08:22;1.97;;;1.23;;
3815;SDS011;1923;48.154;11.536;2022-07-29T01:10:51;1.73;;;1.30;;
3815;SDS011;1923;48.154;11.536;2022-07-29T01:13:25;1.13;;;1.03;;
3815;SDS011;1923;48.154;11.536;2022-07-29T01:15:54;1.83;;;1.10;;
3815;SDS011;1923;48.154;11.536;2022-07-29T01:18:28;1.50;;;1.27;;
3815;SDS011;1923;48.154;11.536;2022-07-29T01:24:06;1.33;;;0.97;;
3815;SDS011;1923;48.154;11.536;2022-07-29T01:26:45;1.47;;;1.10;;
3815;SDS011;1923;48.154;11.536;2022-07-29T01:29:18;1.17;;;0.97;;
3815;SDS011;1923;48.154;11.536;2022-07-29T01:32:05;1.33;;;0.97;;
3815;SDS011;1923;48.154;11.536;2022-07-29T01:34:55;1.40;;;1.07;;
3815;SDS011;1923;48.154;11.536;2022-07-29T01:37:28;1.10;;;0.70;;
3815;SDS011;1923;48.154;11.536;2022-07-29T01:40:05;1.00;;;0.90;;
3815;SDS011;1923;48.154;11.536;2022-07-29T01:42:38;1.40;;;0.83;;
3815;SDS011;1923;48.154;11.536;2022-07-29T01:45:12;1.13;;;0.80;;
3815;SDS011;1923;48.154;11.536;2022-07-29T01:47:44;1.90;;;0.80;;
3815;SDS011;1923;48.154;11.536;2022-07-29T01:50:26;0.93;;;0.60;;
3815;SDS011;1923;48.154;11.536;2022-07-29T01:53:01;1.33;;;0.80;;
3815;SDS011;1923;48.154;11.536;2022-07-29T01:55:34;1.03;;;0.70;;
3815;SDS011;1923;48.154;11.536;2022-07-29T01:58:06;1.30;;;0.87;;
3815;SDS011;1923;48.154;11.536;2022-07-29T02:00:42;1.10;;;0.77;;
3815;SDS011;1923;48.154;11.536;2022-07-29T02:03:13;1.70;;;0.73;;
3815;SDS011;1923;48.154;11.536;2022-07-29T02:05:42;0.90;;;0.60;;
3815;SDS011;1923;48.154;11.536;2022-07-29T02:08:13;1.20;;;0.70;;
3815;SDS011;1923;48.154;11.536;2022-07-29T02:10:42;1.00;;;0.80;;
3815;SDS011;1923;48.154;11.536;2022-07-29T02:13:11;0.80;;;0.40;;
3815;SDS011;1923;48.154;11.536;2022-07-29T02:15:43;1.20;;;0.80;;
3815;SDS011;1923;48.154;11.536;2022-07-29T02:18:14;1.43;;;0.83;;
3815;SDS011;1923;48.154;11.536;2022-07-29T02:20:44;2.00;;;0.90;;
3815;SDS011;1923;48.154;11.536;2022-07-29T02:23:17;1.33;;;0.77;;
3815;SDS011;1923;48.154;11.536;2022-07-29T02:25:47;0.90;;;0.70;;
3815;SDS011;1923;48.154;11.536;2022-07-29T02:28:18;1.00;;;0.83;;
3815;SDS011;1923;48.154;11.536;2022-07-29T02:30:48;1.20;;;0.83;;
3815;SDS011;1923;48.154;11.536;2022-07-29T02:33:19;1.33;;;0.83;;
3815;SDS011;1923;48.154;11.536;2022-07-29T02:35:49;1.23;;;0.93;;
3815;SDS011;1923;48.154;11.536;2022-07-29T02:38:18;1.13;;;0.87;;
3815;SDS011;1923;48.154;11.536;2022-07-29T02:41:05;0.77;;;0.70;;
3815;SDS011;1923;48.154;11.536;2022-07-29T02:43:37;1.00;;;0.60;;
3815;SDS011;1923;48.154;11.536;2022-07-29T02:46:10;1.30;;;0.80;;
3815;SDS011;1923;48.154;11.536;2022-07-29T02:48:55;1.50;;;1.00;;
3815;SDS011;1923;48.154;11.536;2022-07-29T02:51:27;1.40;;;1.00;;
3815;SDS011;1923;48.154;11.536;2022-07-29T02:54:10;1.77;;;1.00;;
3815;SDS011;1923;48.154;11.536;2022-07-29T02:56:42;1.97;;;0.90;;
3815;SDS011;1923;48.154;11.536;2022-07-29T02:59:11;1.10;;;1.00;;
3815;SDS011;1923;48.154;11.536;2022-07-29T03:01:42;1.00;;;0.80;;
3815;SDS011;1923;48.154;11.536;2022-07-29T03:04:11;1.37;;;0.90;;
3815;SDS011;1923;48.154;11.536;2022-07-29T03:06:42;1.13;;;0.70;;
3815;SDS011;1923;48.154;11.536;2022-07-29T03:09:11;2.20;;;1.20;;
3815;SDS011;1923;48.154;11.536;2022-07-29T03:11:41;1.10;;;0.83;;
3815;SDS011;1923;48.154;11.536;2022-07-29T03:14:16;1.43;;;0.83;;
3815;SDS011;1923;48.154;11.536;2022-07-29T03:16:48;1.07;;;0.80;;
3815;SDS011;1923;48.154;11.536;2022-07-29T03:19:18;1.10;;;0.80;;
3815;SDS011;1923;48.154;11.536;2022-07-29T03:21:47;1.23;;;0.80;;
3815;SDS011;1923;48.154;11.536;2022-07-29T03:24:24;1.00;;;0.77;;
3815;SDS011;1923;48.154;11.536;2022-07-29T03:26:54;1.37;;;1.00;;
3815;SDS011;1923;48.154;11.536;2022-07-29T03:29:23;2.03;;;1.20;;
3815;SDS011;1923;48.154;11.536;2022-07-29T03:32:00;1.30;;;0.83;;
3815;SDS011;1923;48.154;11.536;2022-07-29T03:34:34;1.40;;;1.10;;
3815;SDS011;1923;48.154;11.536;2022-07-29T03:37:04;1.23;;;0.80;;
3815;SDS011;1923;48.154;11.536;2022-07-29T03:39:34;1.37;;;0.87;;
3815;SDS011;1923;48.154;11.536;2022-07-29T03:42:05;3.10;;;1.00;;
3815;SDS011;1923;48.154;11.536;2022-07-29T03:44:35;1.63;;;1.10;;
3815;SDS011;1923;48.154;11.536;2022-07-29T03:47:07;1.07;;;0.90;;
3815;SDS011;1923;48.154;11.536;2022-07-29T03:49:36;1.20;;;1.10;;
3815;SDS011;1923;48.154;11.536;2022-07-29T03:52:06;2.13;;;1.17;;
3815;SDS011;1923;48.154;11.536;2022-07-29T03:54:34;2.20;;;1.30;;
3815;SDS011;1923;48.154;11.536;2022-07-29T03:57:03;1.40;;;1.30;;
3815;SDS011;1923;48.154;11.536;2022-07-29T03:59:33;2.97;;;1.70;;
3815;SDS011;1923;48.154;11.536;2022-07-29T04:02:02;2.10;;;1.30;;
3815;SDS011;1923;48.154;11.536;2022-07-29T04:04:33;1.40;;;0.90;;
3815;SDS011;1923;48.154;11.536;2022-07-29T04:07:02;1.20;;;1.10;;
3815;SDS011;1923;48.154;11.536;2022-07-29T04:09:31;1.07;;;0.80;;
3815;SDS011;1923;48.154;11.536;2022-07-29T04:11:59;2.23;;;1.00;;
3815;SDS011;1923;48.154;11.536;2022-07-29T04:14:30;1.27;;;0.83;;
3815;SDS011;1923;48.154;11.536;2022-07-29T04:16:58;1.23;;;1.03;;
3815;SDS011;1923;48.154;11.536;2022-07-29T04:19:26;1.47;;;0.97;;
3815;SDS011;1923;48.154;11.536;2022-07-29T04:21:56;1.20;;;1.10;;
3815;SDS011;1923;48.154;11.536;2022-07-29T04:24:25;2.43;;;1.50;;
3815;SDS011;1923;48.154;11.536;2022-07-29T04:26:54;1.80;;;1.00;;
3815;SDS011;1923;48.154;11.536;2022-07-29T04:29:22;2.27;;;1.50;;
3815;SDS011;1923;48.154;11.536;2022-07-29T04:31:50;2.77;;;1.20;;
3815;SDS011;1923;48.154;11.536;2022-07-29T04:34:18;1.70;;;1.23;;
3815;SDS011;1923;48.154;11.536;2022-07-29T04:36:46;1.80;;;1.10;;
3815;SDS011;1923;48.154;11.536;2022-07-29T04:39:15;2.23;;;1.50;;
3815;SDS011;1923;48.154;11.536;2022-07-29T04:41:48;1.77;;;1.10;;
3815;SDS011;1923;48.154;11.536;2022-07-29T04:44:21;1.57;;;1.30;;
3815;SDS011;1923;48.154;11.536;2022-07-29T04:46:54;2.53;;;1.60;;
3815;SDS011;1923;48.154;11.536;2022-07-29T04:49:23;1.73;;;1.37;;
3815;SDS011;1923;48.154;11.536;2022-07-29T04:51:51;3.10;;;2.00;;
3815;SDS011;1923;48.154;11.536;2022-07-29T04:54:20;3.20;;;1.80;;
3815;SDS011;1923;48.154;11.536;2022-07-29T04:56:49;6.00;;;2.80;;
3815;SDS011;1923;48.154;11.536;2022-07-29T04:59:18;2.53;;;1.77;;
3815;SDS011;1923;48.154;11.536;2022-07-29T05:01:46;3.87;;;2.50;;
3815;SDS011;1923;48.154;11.536;2022-07-29T05:04:14;2.70;;;2.33;;
3815;SDS011;1923;48.154;11.536;2022-07-29T05:06:42;3.00;;;1.80;;
3815;SDS011;1923;48.154;11.536;2022-07-29T05:09:10;1.90;;;1.40;;
3815;SDS011;1923;48.154;11.536;2022-07-29T05:11:40;3.07;;;2.17;;
3815;SDS011;1923;48.154;11.536;2022-07-29T05:14:08;2.33;;;1.70;;
3815;SDS011;1923;48.154;11.536;2022-07-29T05:16:36;3.60;;;2.20;;
3815;SDS011;1923;48.154;11.536;2022-07-29T05:19:05;2.43;;;1.83;;
3815;SDS011;1923;48.154;11.536;2022-07-29T05:21:39;2.97;;;1.77;;
3815;SDS011;1923;48.154;11.536;2022-07-29T05:24:07;2.27;;;1.30;;
3815;SDS011;1923;48.154;11.536;2022-07-29T05:26:35;2.50;;;1.83;;
3815;SDS011;1923;48.154;11.536;2022-07-29T05:29:05;2.60;;;1.57;;
3815;SDS011;1923;48.154;11.536;2022-07-29T05:31:53;2.00;;;1.80;;
3815;SDS011;1923;48.154;11.536;2022-07-29T05:34:21;1.80;;;1.10;;
3815;SDS011;1923;48.154;11.536;2022-07-29T05:36:49;1.70;;;1.47;;
3815;SDS011;1923;48.154;11.536;2022-07-29T05:39:17;3.03;;;1.43;;
3815;SDS011;1923;48.154;11.536;2022-07-29T05:41:46;1.90;;;1.53;;
3815;SDS011;1923;48.154;11.536;2022-07-29T05:44:18;2.27;;;1.43;;
3815;SDS011;1923;48.154;11.536;2022-07-29T05:46:50;2.13;;;1.53;;
3815;SDS011;1923;48.154;11.536;2022-07-29T05:49:18;1.87;;;1.37;;
3815;SDS011;1923;48.154;11.536;2022-07-29T05:51:52;1.73;;;1.20;;
3815;SDS011;1923;48.154;11.536;2022-07-29T05:54:21;1.90;;;1.57;;
3815;SDS011;1923;48.154;11.536;2022-07-29T05:56:48;1.27;;;1.17;;
3815;SDS011;1923;48.154;11.536;2022-07-29T05:59:18;2.17;;;1.20;;
3815;SDS011;1923;48.154;11.536;2022-07-29T06:01:46;3.00;;;1.40;;
3815;SDS011;1923;48.154;11.536;2022-07-29T06:04:14;1.53;;;1.43;;
3815;SDS011;1923;48.154;11.536;2022-07-29T06:06:43;2.27;;;1.57;;
3815;SDS011;1923;48.154;11.536;2022-07-29T06:09:11;1.53;;;1.17;;
3815;SDS011;1923;48.154;11.536;2022-07-29T06:11:40;2.20;;;1.13;;
3815;SDS011;1923;48.154;11.536;2022-07-29T06:14:08;2.37;;;1.43;;
3815;SDS011;1923;48.154;11.536;2022-07-29T06:16:37;1.60;;;1.30;;
3815;SDS011;1923;48.154;11.536;2022-07-29T06:19:06;1.53;;;1.20;;
3815;SDS011;1923;48.154;11.536;2022-07-29T06:21:34;1.90;;;1.30;;
3815;SDS011;1923;48.154;11.536;2022-07-29T06:24:07;1.90;;;1.43;;
3815;SDS011;1923;48.154;11.536;2022-07-29T06:26:35;2.50;;;1.30;;
3815;SDS011;1923;48.154;11.536;2022-07-29T06:29:05;2.50;;;1.53;;
3815;SDS011;1923;48.154;11.536;2022-07-29T06:31:33;1.93;;;1.40;;
3815;SDS011;1923;48.154;11.536;2022-07-29T06:34:03;1.43;;;1.00;;
3815;SDS011;1923;48.154;11.536;2022-07-29T06:36:33;2.40;;;1.30;;
3815;SDS011;1923;48.154;11.536;2022-07-29T06:39:03;1.40;;;1.20;;
3815;SDS011;1923;48.154;11.536;2022-07-29T06:41:33;1.60;;;1.13;;
3815;SDS011;1923;48.154;11.536;2022-07-29T06:44:01;1.77;;;1.13;;
3815;SDS011;1923;48.154;11.536;2022-07-29T06:46:30;2.10;;;1.60;;
3815;SDS011;1923;48.154;11.536;2022-07-29T06:48:59;3.53;;;1.23;;
3815;SDS011;1923;48.154;11.536;2022-07-29T06:51:30;1.80;;;1.30;;
3815;SDS011;1923;48.154;11.536;2022-07-29T06:53:58;1.60;;;0.90;;
3815;SDS011;1923;48.154;11.536;2022-07-29T06:56:29;2.00;;;1.03;;
3815;SDS011;1923;48.154;11.536;2022-07-29T06:59:03;1.90;;;0.90;;
3815;SDS011;1923;48.154;11.536;2022-07-29T07:01:31;1.20;;;0.70;;
3815;SDS011;1923;48.154;11.536;2022-07-29T07:03:59;1.10;;;0.80;;
3815;SDS011;1923;48.154;11.536;2022-07-29T07:06:27;1.30;;;0.80;;
3815;SDS011;1923;48.154;11.536;2022-07-29T07:08:57;2.27;;;0.90;;
3815;SDS011;1923;48.154;11.536;2022-07-29T07:11:25;1.53;;;1.10;;
3815;SDS011;1923;48.154;11.536;2022-07-29T07:13:53;2.57;;;1.70;;
3815;SDS011;1923;48.154;11.536;2022-07-29T07:16:28;2.47;;;1.10;;
3815;SDS011;1923;48.154;11.536;2022-07-29T07:18:57;1.80;;;1.10;;
3815;SDS011;1923;48.154;11.536;2022-07-29T07:21:25;1.93;;;1.10;;
3815;SDS011;1923;48.154;11.536;2022-07-29T07:23:57;1.80;;;1.10;;
3815;SDS011;1923;48.154;11.536;2022-07-29T07:26:26;2.33;;;1.33;;
3815;SDS011;1923;48.154;11.536;2022-07-29T07:28:54;1.00;;;0.77;;
3815;SDS011;1923;48.154;11.536;2022-07-29T07:31:22;1.60;;;1.10;;
3815;SDS011;1923;48.154;11.536;2022-07-29T07:33:51;1.60;;;0.70;;
3815;SDS011;1923;48.154;11.536;2022-07-29T07:36:20;2.10;;;1.17;;
3815;SDS011;1923;48.154;11.536;2022-07-29T07:38:48;2.33;;;1.03;;
3815;SDS011;1923;48.154;11.536;2022-07-29T07:41:17;1.83;;;1.30;;
3815;SDS011;1923;48.154;11.536;2022-07-29T07:43:46;1.70;;;1.20;;
3815;SDS011;1923;48.154;11.536;2022-07-29T07:46:14;1.90;;;0.90;;
3815;SDS011;1923;48.154;11.536;2022-07-29T07:48:43;1.03;;;0.93;;
3815;SDS011;1923;48.154;11.536;2022-07-29T07:51:11;2.20;;;1.17;;
3815;SDS011;1923;48.154;11.536;2022-07-29T07:53:39;1.53;;;0.97;;
3815;SDS011;1923;48.154;11.536;2022-07-29T07:56:07;1.53;;;1.10;;
3815;SDS011;1923;48.154;11.536;2022-07-29T07:58:39;4.00;;;2.00;;
3815;SDS011;1923;48.154;11.536;2022-07-29T08:01:07;2.67;;;0.97;;
3815;SDS011;1923;48.154;11.536;2022-07-29T08:03:36;1.30;;;1.10;;
3815;SDS011;1923;48.154;11.536;2022-07-29T08:06:05;1.17;;;0.80;;
3815;SDS011;1923;48.154;11.536;2022-07-29T08:08:33;1.90;;;1.23;;
3815;SDS011;1923;48.154;11.536;2022-07-29T08:11:01;1.40;;;0.90;;
3815;SDS011;1923;48.154;11.536;2022-07-29T08:13:35;0.97;;;0.87;;
3815;SDS011;1923;48.154;11.536;2022-07-29T08:16:06;1.07;;;0.83;;
3815;SDS011;1923;48.154;11.536;2022-07-29T08:18:42;1.37;;;0.80;;
3815;SDS011;1923;48.154;11.536;2022-07-29T08:21:11;1.00;;;0.73;;
3815;SDS011;1923;48.154;11.536;2022-07-29T08:23:40;0.90;;;0.70;;
3815;SDS011;1923;48.154;11.536;2022-07-29T08:26:23;1.27;;;0.80;;
3815;SDS011;1923;48.154;11.536;2022-07-29T08:28:51;1.47;;;1.00;;
3815;SDS011;1923;48.154;11.536;2022-07-29T08:31:20;1.13;;;0.90;;
3815;SDS011;1923;48.154;11.536;2022-07-29T08:33:48;1.20;;;1.00;;
3815;SDS011;1923;48.154;11.536;2022-07-29T08:36:16;2.37;;;1.03;;
3815;SDS011;1923;48.154;11.536;2022-07-29T08:38:47;1.30;;;0.80;;
3815;SDS011;1923;48.154;11.536;2022-07-29T08:41:15;1.23;;;0.90;;
3815;SDS011;1923;48.154;11.536;2022-07-29T08:43:45;1.53;;;0.80;;
3815;SDS011;1923;48.154;11.536;2022-07-29T08:46:13;1.43;;;0.93;;
3815;SDS011;1923;48.154;11.536;2022-07-29T08:48:43;1.47;;;0.90;;
3815;SDS011;1923;48.154;11.536;2022-07-29T08:51:15;1.73;;;1.40;;
3815;SDS011;1923;48.154;11.536;2022-07-29T08:53:45;1.40;;;1.20;;
3815;SDS011;1923;48.154;11.536;2022-07-29T08:56:15;1.77;;;1.30;;
3815;SDS011;1923;48.154;11.536;2022-07-29T08:58:45;4.63;;;3.20;;
3815;SDS011;1923;48.154;11.536;2022-07-29T09:01:20;1.47;;;1.13;;
3815;SDS011;1923;48.154;11.536;2022-07-29T09:04:03;1.40;;;1.10;;
3815;SDS011;1923;48.154;11.536;2022-07-29T09:06:34;2.40;;;1.33;;
3815;SDS011;1923;48.154;11.536;2022-07-29T09:09:07;1.90;;;1.60;;
3815;SDS011;1923;48.154;11.536;2022-07-29T09:11:35;2.90;;;1.70;;
3815;SDS011;1923;48.154;11.536;2022-07-29T09:14:04;3.27;;;1.70;;
3815;SDS011;1923;48.154;11.536;2022-07-29T09:16:45;2.60;;;1.30;;
3815;SDS011;1923;48.154;11.536;2022-07-29T09:19:21;2.10;;;1.27;;
3815;SDS011;1923;48.154;11.536;2022-07-29T09:21:51;2.00;;;1.30;;
3815;SDS011;1923;48.154;11.536;2022-07-29T09:24:26;1.30;;;1.00;;
3815;SDS011;1923;48.154;11.536;2022-07-29T09:27:07;2.80;;;1.30;;
3815;SDS011;1923;48.154;11.536;2022-07-29T09:29:45;1.73;;;1.60;;
3815;SDS011;1923;48.154;11.536;2022-07-29T09:32:13;1.10;;;1.00;;
3815;SDS011;1923;48.154;11.536;2022-07-29T09:34:43;2.00;;;1.40;;
3815;SDS011;1923;48.154;11.536;2022-07-29T09:37:11;2.00;;;1.80;;
3815;SDS011;1923;48.154;11.536;2022-07-29T09:39:53;3.13;;;2.27;;
3815;SDS011;1923;48.154;11.536;2022-07-29T09:42:27;1.13;;;1.03;;
3815;SDS011;1923;48.154;11.536;2022-07-29T09:44:58;1.53;;;1.30;;
3815;SDS011;1923;48.154;11.536;2022-07-29T09:47:40;1.60;;;1.10;;
3815;SDS011;1923;48.154;11.536;2022-07-29T09:50:12;2.07;;;1.60;;
3815;SDS011;1923;48.154;11.536;2022-07-29T09:52:45;1.83;;;1.37;;
3815;SDS011;1923;48.154;11.536;2022-07-29T09:55:14;2.83;;;2.57;;
3815;SDS011;1923;48.154;11.536;2022-07-29T09:57:45;2.80;;;2.13;;
3815;SDS011;1923;48.154;11.536;2022-07-29T10:00:15;3.17;;;1.93;;
3815;SDS011;1923;48.154;11.536;2022-07-29T10:02:45;1.93;;;1.60;;
3815;SDS011;1923;48.154;11.536;2022-07-29T10:05:19;1.50;;;1.23;;
3815;SDS011;1923;48.154;11.536;2022-07-29T10:07:49;1.40;;;1.30;;
3815;SDS011;1923;48.154;11.536;2022-07-29T10:10:20;2.73;;;1.63;;
3815;SDS011;1923;48.154;11.536;2022-07-29T10:12:51;2.63;;;1.70;;
3815;SDS011;1923;48.154;11.536;2022-07-29T10:15:21;2.73;;;1.90;;
3815;SDS011;1923;48.154;11.536;2022-07-29T10:17:51;2.03;;;1.70;;
3815;SDS011;1923;48.154;11.536;2022-07-29T10:20:22;1.87;;;1.43;;
3815;SDS011;1923;48.154;11.536;2022-07-29T10:22:50;3.07;;;1.73;;
3815;SDS011;1923;48.154;11.536;2022-07-29T10:25:20;2.50;;;1.70;;
3815;SDS011;1923;48.154;11.536;2022-07-29T10:27:49;2.60;;;1.50;;
3815;SDS011;1923;48.154;11.536;2022-07-29T10:30:18;2.50;;;1.70;;
3815;SDS011;1923;48.154;11.536;2022-07-29T10:32:51;2.00;;;1.60;;
3815;SDS011;1923;48.154;11.536;2022-07-29T10:35:53;3.90;;;1.40;;
3815;SDS011;1923;48.154;11.536;2022-07-29T10:38:45;2.03;;;1.80;;
3815;SDS011;1923;48.154;11.536;2022-07-29T10:41:34;2.70;;;1.40;;
3815;SDS011;1923;48.154;11.536;2022-07-29T10:44:13;2.40;;;1.70;;
3815;SDS011;1923;48.154;11.536;2022-07-29T10:46:49;1.50;;;1.40;;
3815;SDS011;1923;48.154;11.536;2022-07-29T10:49:18;5.70;;;2.07;;
3815;SDS011;1923;48.154;11.536;2022-07-29T10:51:52;2.10;;;1.70;;
3815;SDS011;1923;48.154;11.536;2022-07-29T10:54:41;1.77;;;1.33;;
3815;SDS011;1923;48.154;11.536;2022-07-29T10:57:25;1.97;;;1.50;;
3815;SDS011;1923;48.154;11.536;2022-07-29T11:00:31;1.63;;;1.07;;
3815;SDS011;1923;48.154;11.536;2022-07-29T11:03:01;1.27;;;1.17;;
3815;SDS011;1923;48.154;11.536;2022-07-29T11:05:53;1.20;;;1.00;;
3815;SDS011;1923;48.154;11.536;2022-07-29T11:08:26;1.30;;;1.20;;
3815;SDS011;1923;48.154;11.536;2022-07-29T11:14:00;1.63;;;1.53;;
3815;SDS011;1923;48.154;11.536;2022-07-29T11:16:57;1.60;;;1.50;;
3815;SDS011;1923;48.154;11.536;2022-07-29T11:19:31;1.30;;;1.17;;
3815;SDS011;1923;48.154;11.536;2022-07-29T11:22:01;1.10;;;1.00;;
3815;SDS011;1923;48.154;11.536;2022-07-29T11:24:30;1.33;;;1.10;;
3815;SDS011;1923;48.154;11.536;2022-07-29T11:27:07;1.97;;;1.43;;
3815;SDS011;1923;48.154;11.536;2022-07-29T11:29:50;1.30;;;1.20;;
3815;SDS011;1923;48.154;11.536;2022-07-29T11:32:22;3.30;;;2.20;;
3815;SDS011;1923;48.154;11.536;2022-07-29T11:35:11;3.20;;;1.90;;
3815;SDS011;1923;48.154;11.536;2022-07-29T11:37:43;1.93;;;1.37;;
3815;SDS011;1923;48.154;11.536;2022-07-29T11:40:18;1.40;;;1.30;;
3815;SDS011;1923;48.154;11.536;2022-07-29T11:42:47;2.20;;;1.40;;
3815;SDS011;1923;48.154;11.536;2022-07-29T11:45:26;1.93;;;1.30;;
3815;SDS011;1923;48.154;11.536;2022-07-29T11:48:18;4.30;;;1.90;;
3815;SDS011;1923;48.154;11.536;2022-07-29T11:50:55;3.13;;;1.87;;
3815;SDS011;1923;48.154;11.536;2022-07-29T11:53:24;2.57;;;2.17;;
3815;SDS011;1923;48.154;11.536;2022-07-29T11:55:57;2.30;;;1.50;;
3815;SDS011;1923;48.154;11.536;2022-07-29T11:58:28;2.83;;;1.37;;
3815;SDS011;1923;48.154;11.536;2022-07-29T12:00:56;2.07;;;1.20;;
3815;SDS011;1923;48.154;11.536;2022-07-29T12:03:32;2.03;;;1.57;;
3815;SDS011;1923;48.154;11.536;2022-07-29T12:06:02;1.60;;;1.50;;
3815;SDS011;1923;48.154;11.536;2022-07-29T12:08:39;2.30;;;1.60;;
3815;SDS011;1923;48.154;11.536;2022-07-29T12:11:15;2.60;;;1.73;;
3815;SDS011;1923;48.154;11.536;2022-07-29T12:13:46;2.63;;;1.50;;
3815;SDS011;1923;48.154;11.536;2022-07-29T12:16:15;2.03;;;1.53;;
3815;SDS011;1923;48.154;11.536;2022-07-29T12:18:59;2.97;;;1.70;;
3815;SDS011;1923;48.154;11.536;2022-07-29T12:21:29;3.60;;;2.23;;
3815;SDS011;1923;48.154;11.536;2022-07-29T12:24:21;3.10;;;2.00;;
3815;SDS011;1923;48.154;11.536;2022-07-29T12:26:52;2.53;;;1.50;;
3815;SDS011;1923;48.154;11.536;2022-07-29T12:29:22;3.47;;;2.17;;
3815;SDS011;1923;48.154;11.536;2022-07-29T12:32:00;2.57;;;1.77;;
3815;SDS011;1923;48.154;11.536;2022-07-29T12:34:41;2.50;;;1.50;;
3815;SDS011;1923;48.154;11.536;2022-07-29T12:37:09;3.73;;;1.93;;
3815;SDS011;1923;48.154;11.536;2022-07-29T12:39:38;1.93;;;1.63;;
3815;SDS011;1923;48.154;11.536;2022-07-29T12:42:10;1.70;;;1.30;;
3815;SDS011;1923;48.154;11.536;2022-07-29T12:44:44;3.70;;;2.13;;
3815;SDS011;1923;48.154;11.536;2022-07-29T12:47:16;2.57;;;2.07;;
3815;SDS011;1923;48.154;11.536;2022-07-29T12:49:47;2.23;;;1.70;;
3815;SDS011;1923;48.154;11.536;2022-07-29T12:52:28;2.10;;;1.70;;
3815;SDS011;1923;48.154;11.536;2022-07-29T12:54:57;4.37;;;2.20;;
3815;SDS011;1923;48.154;11.536;2022-07-29T12:57:27;2.67;;;1.60;;
3815;SDS011;1923;48.154;11.536;2022-07-29T13:00:00;2.37;;;1.50;;
3815;SDS011;1923;48.154;11.536;2022-07-29T13:02:35;1.97;;;1.80;;
3815;SDS011;1923;48.154;11.536;2022-07-29T13:05:05;1.77;;;1.40;;
3815;SDS011;1923;48.154;11.536;2022-07-29T13:07:35;2.00;;;1.50;;
3815;SDS011;1923;48.154;11.536;2022-07-29T13:10:22;2.77;;;1.90;;
3815;SDS011;1923;48.154;11.536;2022-07-29T13:13:01;6.70;;;2.80;;
3815;SDS011;1923;48.154;11.536;2022-07-29T13:15:30;3.00;;;1.67;;
3815;SDS011;1923;48.154;11.536;2022-07-29T13:17:58;3.10;;;2.60;;
3815;SDS011;1923;48.154;11.536;2022-07-29T13:20:28;3.60;;;1.93;;
3815;SDS011;1923;48.154;11.536;2022-07-29T13:22:57;2.70;;;2.10;;
3815;SDS011;1923;48.154;11.536;2022-07-29T13:25:26;9.33;;;3.57;;
3815;SDS011;1923;48.154;11.536;2022-07-29T13:27:55;4.30;;;2.50;;
3815;SDS011;1923;48.154;11.536;2022-07-29T13:30:24;4.70;;;2.20;;
3815;SDS011;1923;48.154;11.536;2022-07-29T13:32:52;3.20;;;2.07;;
3815;SDS011;1923;48.154;11.536;2022-07-29T13:35:21;3.73;;;2.20;;
3815;SDS011;1923;48.154;11.536;2022-07-29T13:37:50;2.73;;;1.90;;
3815;SDS011;1923;48.154;11.536;2022-07-29T13:40:19;2.53;;;1.70;;
3815;SDS011;1923;48.154;11.536;2022-07-29T13:42:47;3.97;;;2.10;;
3815;SDS011;1923;48.154;11.536;2022-07-29T13:45:16;2.47;;;2.07;;
3815;SDS011;1923;48.154;11.536;2022-07-29T13:47:44;2.60;;;2.03;;
3815;SDS011;1923;48.154;11.536;2022-07-29T13:50:14;2.70;;;2.10;;
3815;SDS011;1923;48.154;11.536;2022-07-29T13:52:42;1.60;;;1.50;;
3815;SDS011;1923;48.154;11.536;2022-07-29T13:55:12;2.40;;;1.90;;
3815;SDS011;1923;48.154;11.536;2022-07-29T13:57:40;2.30;;;2.10;;
3815;SDS011;1923;48.154;11.536;2022-07-29T14:00:08;2.20;;;1.33;;
3815;SDS011;1923;48.154;11.536;2022-07-29T14:02:37;2.10;;;1.63;;
3815;SDS011;1923;48.154;11.536;2022-07-29T14:05:05;2.70;;;1.50;;
3815;SDS011;1923;48.154;11.536;2022-07-29T14:07:36;1.97;;;1.30;;
3815;SDS011;1923;48.154;11.536;2022-07-29T14:10:04;4.23;;;1.80;;
3815;SDS011;1923;48.154;11.536;2022-07-29T14:12:34;1.13;;;1.03;;
3815;SDS011;1923;48.154;11.536;2022-07-29T14:15:03;1.93;;;1.50;;
3815;SDS011;1923;48.154;11.536;2022-07-29T14:17:31;1.80;;;1.37;;
3815;SDS011;1923;48.154;11.536;2022-07-29T14:19:59;1.93;;;1.50;;
3815;SDS011;1923;48.154;11.536;2022-07-29T14:22:27;3.27;;;1.83;;
3815;SDS011;1923;48.154;11.536;2022-07-29T14:24:56;2.53;;;1.70;;
3815;SDS011;1923;48.154;11.536;2022-07-29T14:27:37;2.67;;;1.50;;
3815;SDS011;1923;48.154;11.536;2022-07-29T14:30:07;3.80;;;1.43;;
3815;SDS011;1923;48.154;11.536;2022-07-29T14:32:36;2.50;;;1.63;;
3815;SDS011;1923;48.154;11.536;2022-07-29T14:35:05;2.60;;;1.63;;
3815;SDS011;1923;48.154;11.536;2022-07-29T14:37:34;2.77;;;1.70;;
3815;SDS011;1923;48.154;11.536;2022-07-29T14:40:06;2.10;;;1.80;;
3815;SDS011;1923;48.154;11.536;2022-07-29T14:42:35;2.20;;;1.60;;
3815;SDS011;1923;48.154;11.536;2022-07-29T14:45:06;2.73;;;1.83;;
3815;SDS011;1923;48.154;11.536;2022-07-29T14:47:35;2.27;;;1.60;;
3815;SDS011;1923;48.154;11.536;2022-07-29T14:50:03;4.47;;;2.27;;
3815;SDS011;1923;48.154;11.536;2022-07-29T14:52:33;1.70;;;1.47;;
3815;SDS011;1923;48.154;11.536;2022-07-29T14:55:02;1.63;;;1.53;;
3815;SDS011;1923;48.154;11.536;2022-07-29T14:57:41;2.30;;;1.50;;
3815;SDS011;1923;48.154;11.536;2022-07-29T15:00:11;3.37;;;1.77;;
3815;SDS011;1923;48.154;11.536;2022-07-29T15:02:40;2.10;;;1.67;;
3815;SDS011;1923;48.154;11.536;2022-07-29T15:05:26;2.63;;;1.60;;
3815;SDS011;1923;48.154;11.536;2022-07-29T15:07:55;2.33;;;1.83;;
3815;SDS011;1923;48.154;11.536;2022-07-29T15:10:23;2.30;;;1.73;;
3815;SDS011;1923;48.154;11.536;2022-07-29T15:12:52;2.40;;;1.90;;
3815;SDS011;1923;48.154;11.536;2022-07-29T15:15:21;3.50;;;2.00;;
3815;SDS011;1923;48.154;11.536;2022-07-29T15:17:50;5.27;;;2.80;;
3815;SDS011;1923;48.154;11.536;2022-07-29T15:20:18;3.97;;;1.90;;
3815;SDS011;1923;48.154;11.536;2022-07-29T15:22:46;2.27;;;2.00;;
3815;SDS011;1923;48.154;11.536;2022-07-29T15:25:14;3.03;;;2.10;;
3815;SDS011;1923;48.154;11.536;2022-07-29T15:27:42;6.30;;;1.70;;
3815;SDS011;1923;48.154;11.536;2022-07-29T15:30:17;2.40;;;1.70;;
3815;SDS011;1923;48.154;11.536;2022-07-29T15:33:00;3.57;;;1.87;;